sensor_id;sensor_type;location;lat;lon;timestamp;temperature;humidity
40816;DHT22;26535;48.788;9.214;2023-04-06T00:00:53;2.80;88.60
40816;DHT22;26535;48.788;9.214;2023-04-06T05:02:13;0.30;99.90
40816;DHT22;26535;48.788;9.214;2023-04-06T05:04:58;0.30;99.90
40816;DHT22;26535;48.788;9.214;2023-04-06T05:07:28;0.30;99.90
40816;DHT22;26535;48.788;9.214;2023-04-06T05:10:05;0.30;99.90
40816;DHT22;26535;48.788;9.214;2023-04-06T05:13:01;0.40;99.70
40816;DHT22;26535;48.788;9.214;2023-04-06T05:15:36;0.60;99.40
40816;DHT22;26535;48.788;9.214;2023-04-06T05:18:35;0.70;99.10
40816;DHT22;26535;48.788;9.214;2023-04-06T05:21:03;0.70;98.60
40816;DHT22;26535;48.788;9.214;2023-04-06T05:24:03;0.80;98.70
40816;DHT22;26535;48.788;9.214;2023-04-06T05:26:30;0.90;98.40
40816;DHT22;26535;48.788;9.214;2023-04-06T05:29:05;1.00;98.40
40816;DHT22;26535;48.788;9.214;2023-04-06T05:31:38;1.00;98.90
40816;DHT22;26535;48.788;9.214;2023-04-06T05:34:15;1.10;98.50
40816;DHT22;26535;48.788;9.214;2023-04-06T05:36:45;1.20;98.80
40816;DHT22;26535;48.788;9.214;2023-04-06T05:39:37;1.20;98.50
40816;DHT22;26535;48.788;9.214;2023-04-06T05:42:06;1.20;98.50
40816;DHT22;26535;48.788;9.214;2023-04-06T05:44:58;1.20;98.60
40816;DHT22;26535;48.788;9.214;2023-04-06T05:47:43;1.30;98.40
40816;DHT22;26535;48.788;9.214;2023-04-06T05:50:27;1.30;98.40
40816;DHT22;26535;48.788;9.214;2023-04-06T05:52:55;1.40;98.70
40816;DHT22;26535;48.788;9.214;2023-04-06T05:55:33;1.50;98.30
40816;DHT22;26535;48.788;9.214;2023-04-06T05:58:28;1.60;98.00
40816;DHT22;26535;48.788;9.214;2023-04-06T06:01:50;1.70;97.80
40816;DHT22;26535;48.788;9.214;2023-04-06T06:04:30;1.80;97.70
40816;DHT22;26535;48.788;9.214;2023-04-06T06:06:59;1.80;97.50
40816;DHT22;26535;48.788;9.214;2023-04-06T06:09:35;1.90;97.30
40816;DHT22;26535;48.788;9.214;2023-04-06T06:12:34;2.00;97.00
40816;DHT22;26535;48.788;9.214;2023-04-06T06:15:22;2.10;96.70
40816;DHT22;26535;48.788;9.214;2023-04-06T06:17:51;2.20;96.50
40816;DHT22;26535;48.788;9.214;2023-04-06T06:21:02;2.30;96.30
40816;DHT22;26535;48.788;9.214;2023-04-06T06:24:35;2.40;96.10
40816;DHT22;26535;48.788;9.214;2023-04-06T06:27:45;2.50;95.70
40816;DHT22;26535;48.788;9.214;2023-04-06T06:30:26;2.60;95.50
40816;DHT22;26535;48.788;9.214;2023-04-06T06:33:16;2.70;95.40
40816;DHT22;26535;48.788;9.214;2023-04-06T06:35:49;2.70;95.30
40816;DHT22;26535;48.788;9.214;2023-04-06T06:38:21;2.90;95.20
40816;DHT22;26535;48.788;9.214;2023-04-06T06:40:50;2.90;94.70
40816;DHT22;26535;48.788;9.214;2023-04-06T06:43:18;3.00;94.70
40816;DHT22;26535;48.788;9.214;2023-04-06T06:46:14;3.10;94.50
40816;DHT22;26535;48.788;9.214;2023-04-06T06:48:46;3.20;94.40
40816;DHT22;26535;48.788;9.214;2023-04-06T06:51:18;3.20;94.20
40816;DHT22;26535;48.788;9.214;2023-04-06T06:56:35;3.30;93.80
40816;DHT22;26535;48.788;9.214;2023-04-06T06:59:09;3.40;93.80
40816;DHT22;26535;48.788;9.214;2023-04-06T07:01:51;3.50;93.30
40816;DHT22;26535;48.788;9.214;2023-04-06T07:04:18;3.50;93.30
40816;DHT22;26535;48.788;9.214;2023-04-06T07:10:05;3.70;93.00
40816;DHT22;26535;48.788;9.214;2023-04-06T07:12:40;3.90;92.70
40816;DHT22;26535;48.788;9.214;2023-04-06T07:15:30;3.90;92.50
40816;DHT22;26535;48.788;9.214;2023-04-06T07:17:59;3.90;92.20
40816;DHT22;26535;48.788;9.214;2023-04-06T07:20:55;4.10;92.20
40816;DHT22;26535;48.788;9.214;2023-04-06T07:23:27;4.10;92.20
40816;DHT22;26535;48.788;9.214;2023-04-06T07:25:57;4.30;91.90
40816;DHT22;26535;48.788;9.214;2023-04-06T07:28:41;4.50;91.70
40816;DHT22;26535;48.788;9.214;2023-04-06T07:31:11;4.60;91.60
40816;DHT22;26535;48.788;9.214;2023-04-06T07:33:37;4.70;91.30
40816;DHT22;26535;48.788;9.214;2023-04-06T07:36:03;4.80;91.30
40816;DHT22;26535;48.788;9.214;2023-04-06T07:38:29;4.90;91.10
40816;DHT22;26535;48.788;9.214;2023-04-06T07:41:33;4.90;90.80
40816;DHT22;26535;48.788;9.214;2023-04-06T07:44:25;5.20;90.80
40816;DHT22;26535;48.788;9.214;2023-04-06T07:47:12;5.30;90.40
40816;DHT22;26535;48.788;9.214;2023-04-06T07:49:47;5.40;90.20
40816;DHT22;26535;48.788;9.214;2023-04-06T07:55:12;5.80;89.50
40816;DHT22;26535;48.788;9.214;2023-04-06T07:57:41;6.00;89.20
40816;DHT22;26535;48.788;9.214;2023-04-06T08:00:19;6.10;88.70
40816;DHT22;26535;48.788;9.214;2023-04-06T08:05:32;6.40;87.10
40816;DHT22;26535;48.788;9.214;2023-04-06T08:07:58;6.60;86.80
40816;DHT22;26535;48.788;9.214;2023-04-06T08:10:27;6.60;86.10
40816;DHT22;26535;48.788;9.214;2023-04-06T08:12:53;6.70;85.80
40816;DHT22;26535;48.788;9.214;2023-04-06T08:15:25;6.80;85.70
40816;DHT22;26535;48.788;9.214;2023-04-06T08:17:55;6.90;85.70
40816;DHT22;26535;48.788;9.214;2023-04-06T08:20:22;7.10;85.20
40816;DHT22;26535;48.788;9.214;2023-04-06T08:23:27;7.20;84.90
40816;DHT22;26535;48.788;9.214;2023-04-06T08:25:57;7.40;83.70
40816;DHT22;26535;48.788;9.214;2023-04-06T08:28:42;7.60;83.60
40816;DHT22;26535;48.788;9.214;2023-04-06T08:31:11;7.70;83.20
40816;DHT22;26535;48.788;9.214;2023-04-06T08:33:37;7.80;82.40
40816;DHT22;26535;48.788;9.214;2023-04-06T08:36:17;8.00;82.80
40816;DHT22;26535;48.788;9.214;2023-04-06T08:38:58;8.30;82.20
40816;DHT22;26535;48.788;9.214;2023-04-06T08:41:37;8.50;81.40
40816;DHT22;26535;48.788;9.214;2023-04-06T08:44:06;8.70;80.70
40816;DHT22;26535;48.788;9.214;2023-04-06T08:46:35;8.90;80.90
40816;DHT22;26535;48.788;9.214;2023-04-06T08:49:12;9.00;79.60
40816;DHT22;26535;48.788;9.214;2023-04-06T08:51:51;9.20;78.40
40816;DHT22;26535;48.788;9.214;2023-04-06T08:54:17;9.30;78.70
40816;DHT22;26535;48.788;9.214;2023-04-06T08:56:47;9.30;77.40
40816;DHT22;26535;48.788;9.214;2023-04-06T08:59:35;9.40;77.40
40816;DHT22;26535;48.788;9.214;2023-04-06T09:04:52;9.60;76.30
40816;DHT22;26535;48.788;9.214;2023-04-06T09:07:20;9.60;76.40
40816;DHT22;26535;48.788;9.214;2023-04-06T09:09:49;9.80;74.80
40816;DHT22;26535;48.788;9.214;2023-04-06T09:14:48;10.10;72.70
40816;DHT22;26535;48.788;9.214;2023-04-06T09:17:29;10.30;73.00
40816;DHT22;26535;48.788;9.214;2023-04-06T09:20:35;10.50;70.90
40816;DHT22;26535;48.788;9.214;2023-04-06T09:23:22;10.50;68.20
40816;DHT22;26535;48.788;9.214;2023-04-06T09:25:49;10.50;67.00
40816;DHT22;26535;48.788;9.214;2023-04-06T09:31:33;10.70;68.10
40816;DHT22;26535;48.788;9.214;2023-04-06T09:34:01;10.70;65.60
40816;DHT22;26535;48.788;9.214;2023-04-06T09:39:32;10.60;63.20
40816;DHT22;26535;48.788;9.214;2023-04-06T09:41:58;10.60;64.20
40816;DHT22;26535;48.788;9.214;2023-04-06T09:44:54;10.80;64.20
40816;DHT22;26535;48.788;9.214;2023-04-06T09:47:32;11.10;63.40
40816;DHT22;26535;48.788;9.214;2023-04-06T09:50:21;11.30;62.10
40816;DHT22;26535;48.788;9.214;2023-04-06T09:53:01;11.50;62.00
40816;DHT22;26535;48.788;9.214;2023-04-06T09:58:34;11.90;59.20
40816;DHT22;26535;48.788;9.214;2023-04-06T10:01:17;12.00;59.60
40816;DHT22;26535;48.788;9.214;2023-04-06T10:06:38;12.00;58.00
40816;DHT22;26535;48.788;9.214;2023-04-06T10:09:22;12.10;58.20
40816;DHT22;26535;48.788;9.214;2023-04-06T10:12:05;12.10;58.20
40816;DHT22;26535;48.788;9.214;2023-04-06T10:14:36;12.20;57.60
40816;DHT22;26535;48.788;9.214;2023-04-06T10:17:12;12.20;57.70
40816;DHT22;26535;48.788;9.214;2023-04-06T10:19:54;12.30;56.90
40816;DHT22;26535;48.788;9.214;2023-04-06T10:25:01;12.40;55.90
40816;DHT22;26535;48.788;9.214;2023-04-06T10:27:33;12.60;57.00
40816;DHT22;26535;48.788;9.214;2023-04-06T10:30:15;12.70;57.40
40816;DHT22;26535;48.788;9.214;2023-04-06T10:32:42;12.60;56.50
40816;DHT22;26535;48.788;9.214;2023-04-06T10:35:15;12.50;56.30
40816;DHT22;26535;48.788;9.214;2023-04-06T10:38:01;12.70;56.70
40816;DHT22;26535;48.788;9.214;2023-04-06T10:40:31;12.80;55.70
40816;DHT22;26535;48.788;9.214;2023-04-06T10:43:21;12.90;55.70
40816;DHT22;26535;48.788;9.214;2023-04-06T10:46:24;13.00;55.10
40816;DHT22;26535;48.788;9.214;2023-04-06T10:49:11;13.00;55.00
40816;DHT22;26535;48.788;9.214;2023-04-06T10:51:38;13.10;55.00
40816;DHT22;26535;48.788;9.214;2023-04-06T10:54:21;13.20;55.10
40816;DHT22;26535;48.788;9.214;2023-04-06T10:56:49;13.30;54.50
40816;DHT22;26535;48.788;9.214;2023-04-06T10:59:24;13.40;55.20
40816;DHT22;26535;48.788;9.214;2023-04-06T11:02:22;13.50;54.40
40816;DHT22;26535;48.788;9.214;2023-04-06T11:05:00;13.80;54.40
40816;DHT22;26535;48.788;9.214;2023-04-06T11:07:29;14.00;53.80
40816;DHT22;26535;48.788;9.214;2023-04-06T11:13:04;14.40;54.00
40816;DHT22;26535;48.788;9.214;2023-04-06T11:15:34;15.00;52.60
40816;DHT22;26535;48.788;9.214;2023-04-06T11:18:04;15.20;51.70
40816;DHT22;26535;48.788;9.214;2023-04-06T11:20:56;15.50;50.80
40816;DHT22;26535;48.788;9.214;2023-04-06T11:23:28;16.40;50.80
40816;DHT22;26535;48.788;9.214;2023-04-06T11:26:00;17.60;49.00
40816;DHT22;26535;48.788;9.214;2023-04-06T11:28:26;18.40;47.90
40816;DHT22;26535;48.788;9.214;2023-04-06T11:31:00;19.20;46.50
40816;DHT22;26535;48.788;9.214;2023-04-06T11:33:38;19.70;46.00
40816;DHT22;26535;48.788;9.214;2023-04-06T11:36:20;19.80;46.60
40816;DHT22;26535;48.788;9.214;2023-04-06T11:38:46;20.50;45.30
40816;DHT22;26535;48.788;9.214;2023-04-06T11:41:14;21.10;45.30
40816;DHT22;26535;48.788;9.214;2023-04-06T11:43:47;21.70;43.60
40816;DHT22;26535;48.788;9.214;2023-04-06T11:46:23;21.90;42.60
40816;DHT22;26535;48.788;9.214;2023-04-06T11:48:58;22.30;43.00
40816;DHT22;26535;48.788;9.214;2023-04-06T11:51:46;23.00;42.70
40816;DHT22;26535;48.788;9.214;2023-04-06T11:54:41;23.40;41.00
40816;DHT22;26535;48.788;9.214;2023-04-06T11:57:21;23.50;41.70
40816;DHT22;26535;48.788;9.214;2023-04-06T11:59:58;24.00;41.30
40816;DHT22;26535;48.788;9.214;2023-04-06T12:02:33;24.00;40.60
40816;DHT22;26535;48.788;9.214;2023-04-06T12:05:01;23.80;41.00
40816;DHT22;26535;48.788;9.214;2023-04-06T12:07:39;23.80;40.10
40816;DHT22;26535;48.788;9.214;2023-04-06T12:10:11;24.10;39.20
40816;DHT22;26535;48.788;9.214;2023-04-06T12:12:43;24.10;39.30
40816;DHT22;26535;48.788;9.214;2023-04-06T12:15:09;23.90;39.60
40816;DHT22;26535;48.788;9.214;2023-04-06T12:17:35;24.50;40.10
40816;DHT22;26535;48.788;9.214;2023-04-06T12:20:02;24.70;39.00
40816;DHT22;26535;48.788;9.214;2023-04-06T12:22:40;25.50;38.80
40816;DHT22;26535;48.788;9.214;2023-04-06T12:25:15;25.70;38.10
40816;DHT22;26535;48.788;9.214;2023-04-06T12:28:00;25.80;39.00
40816;DHT22;26535;48.788;9.214;2023-04-06T12:30:29;26.00;37.90
40816;DHT22;26535;48.788;9.214;2023-04-06T12:32:55;26.30;39.20
40816;DHT22;26535;48.788;9.214;2023-04-06T12:35:24;25.80;37.00
40816;DHT22;26535;48.788;9.214;2023-04-06T12:37:50;25.80;36.90
40816;DHT22;26535;48.788;9.214;2023-04-06T12:40:19;26.70;37.30
40816;DHT22;26535;48.788;9.214;2023-04-06T12:43:07;26.60;37.30
40816;DHT22;26535;48.788;9.214;2023-04-06T12:45:56;25.80;37.70
40816;DHT22;26535;48.788;9.214;2023-04-06T12:48:22;26.00;37.00
40816;DHT22;26535;48.788;9.214;2023-04-06T12:51:17;26.70;37.40
40816;DHT22;26535;48.788;9.214;2023-04-06T12:54:04;27.00;36.60
40816;DHT22;26535;48.788;9.214;2023-04-06T13:00:53;28.50;35.70
40816;DHT22;26535;48.788;9.214;2023-04-06T13:03:22;28.10;35.70
40816;DHT22;26535;48.788;9.214;2023-04-06T13:05:49;28.20;35.60
40816;DHT22;26535;48.788;9.214;2023-04-06T13:08:19;28.00;35.60
40816;DHT22;26535;48.788;9.214;2023-04-06T13:10:54;28.20;35.70
40816;DHT22;26535;48.788;9.214;2023-04-06T13:13:28;28.50;37.50
40816;DHT22;26535;48.788;9.214;2023-04-06T13:15:55;28.80;35.10
40816;DHT22;26535;48.788;9.214;2023-04-06T13:18:33;28.60;35.20
40816;DHT22;26535;48.788;9.214;2023-04-06T13:21:04;28.30;37.40
40816;DHT22;26535;48.788;9.214;2023-04-06T13:23:36;28.30;35.00
40816;DHT22;26535;48.788;9.214;2023-04-06T13:26:15;28.00;35.20
40816;DHT22;26535;48.788;9.214;2023-04-06T13:28:45;27.00;35.30
40816;DHT22;26535;48.788;9.214;2023-04-06T13:31:22;25.70;37.60
40816;DHT22;26535;48.788;9.214;2023-04-06T13:33:47;26.10;35.60
40816;DHT22;26535;48.788;9.214;2023-04-06T13:36:13;25.70;36.00
40816;DHT22;26535;48.788;9.214;2023-04-06T13:38:41;26.60;38.70
40816;DHT22;26535;48.788;9.214;2023-04-06T13:41:07;27.60;35.60
40816;DHT22;26535;48.788;9.214;2023-04-06T13:43:33;27.10;35.80
40816;DHT22;26535;48.788;9.214;2023-04-06T13:46:11;26.90;35.70
40816;DHT22;26535;48.788;9.214;2023-04-06T13:48:37;26.80;36.20
40816;DHT22;26535;48.788;9.214;2023-04-06T13:51:15;26.60;36.10
40816;DHT22;26535;48.788;9.214;2023-04-06T13:53:41;26.80;35.90
40816;DHT22;26535;48.788;9.214;2023-04-06T13:56:07;26.70;35.20
40816;DHT22;26535;48.788;9.214;2023-04-06T13:58:36;26.90;35.50
40816;DHT22;26535;48.788;9.214;2023-04-06T14:01:06;26.60;35.40
40816;DHT22;26535;48.788;9.214;2023-04-06T14:03:33;25.60;36.80
40816;DHT22;26535;48.788;9.214;2023-04-06T14:05:59;24.70;37.00
40816;DHT22;26535;48.788;9.214;2023-04-06T14:08:25;24.00;37.90
40816;DHT22;26535;48.788;9.214;2023-04-06T14:10:54;23.60;37.30
40816;DHT22;26535;48.788;9.214;2023-04-06T14:13:32;23.10;38.10
40816;DHT22;26535;48.788;9.214;2023-04-06T14:16:05;22.70;37.80
40816;DHT22;26535;48.788;9.214;2023-04-06T14:18:39;22.50;39.10
40816;DHT22;26535;48.788;9.214;2023-04-06T14:21:26;22.70;38.70
40816;DHT22;26535;48.788;9.214;2023-04-06T14:23:55;22.20;38.30
40816;DHT22;26535;48.788;9.214;2023-04-06T14:26:29;21.90;38.60
40816;DHT22;26535;48.788;9.214;2023-04-06T14:29:16;21.80;38.90
40816;DHT22;26535;48.788;9.214;2023-04-06T14:32:06;22.00;38.60
40816;DHT22;26535;48.788;9.214;2023-04-06T14:34:36;22.80;39.00
40816;DHT22;26535;48.788;9.214;2023-04-06T14:37:05;23.60;37.90
40816;DHT22;26535;48.788;9.214;2023-04-06T14:39:32;24.50;37.10
40816;DHT22;26535;48.788;9.214;2023-04-06T14:41:58;24.80;39.80
40816;DHT22;26535;48.788;9.214;2023-04-06T14:44:33;25.60;38.40
40816;DHT22;26535;48.788;9.214;2023-04-06T14:47:13;26.20;36.40
40816;DHT22;26535;48.788;9.214;2023-04-06T14:49:44;26.70;35.60
40816;DHT22;26535;48.788;9.214;2023-04-06T14:52:15;26.30;35.60
40816;DHT22;26535;48.788;9.214;2023-04-06T14:54:44;26.20;35.70
40816;DHT22;26535;48.788;9.214;2023-04-06T14:57:10;25.70;35.90
40816;DHT22;26535;48.788;9.214;2023-04-06T14:59:35;24.90;36.60
40816;DHT22;26535;48.788;9.214;2023-04-06T15:02:04;24.50;36.90
40816;DHT22;26535;48.788;9.214;2023-04-06T15:04:30;25.00;37.80
40816;DHT22;26535;48.788;9.214;2023-04-06T15:06:56;25.50;36.40
40816;DHT22;26535;48.788;9.214;2023-04-06T15:09:22;25.30;37.00
40816;DHT22;26535;48.788;9.214;2023-04-06T15:11:47;25.10;36.60
40816;DHT22;26535;48.788;9.214;2023-04-06T15:14:13;24.80;36.30
40816;DHT22;26535;48.788;9.214;2023-04-06T15:16:39;24.00;36.70
40816;DHT22;26535;48.788;9.214;2023-04-06T15:19:05;23.20;37.30
40816;DHT22;26535;48.788;9.214;2023-04-06T15:21:30;22.90;38.40
40816;DHT22;26535;48.788;9.214;2023-04-06T15:23:57;22.70;38.60
40816;DHT22;26535;48.788;9.214;2023-04-06T15:26:23;22.00;38.30
40816;DHT22;26535;48.788;9.214;2023-04-06T15:28:49;21.60;39.40
40816;DHT22;26535;48.788;9.214;2023-04-06T15:31:16;21.30;41.50
40816;DHT22;26535;48.788;9.214;2023-04-06T15:33:42;21.20;40.40
40816;DHT22;26535;48.788;9.214;2023-04-06T15:36:28;21.20;40.10
40816;DHT22;26535;48.788;9.214;2023-04-06T15:38:56;21.00;41.00
40816;DHT22;26535;48.788;9.214;2023-04-06T15:41:28;20.90;40.00
40816;DHT22;26535;48.788;9.214;2023-04-06T15:44:00;20.80;40.20
40816;DHT22;26535;48.788;9.214;2023-04-06T15:46:26;20.50;40.90
40816;DHT22;26535;48.788;9.214;2023-04-06T15:48:52;20.00;41.80
40816;DHT22;26535;48.788;9.214;2023-04-06T15:51:18;19.80;40.70
40816;DHT22;26535;48.788;9.214;2023-04-06T15:53:47;19.60;41.40
40816;DHT22;26535;48.788;9.214;2023-04-06T15:56:13;19.50;41.20
40816;DHT22;26535;48.788;9.214;2023-04-06T15:58:39;19.40;41.10
40816;DHT22;26535;48.788;9.214;2023-04-06T16:03:37;18.90;42.10
40816;DHT22;26535;48.788;9.214;2023-04-06T16:06:03;18.60;41.90
40816;DHT22;26535;48.788;9.214;2023-04-06T16:08:29;18.40;42.20
40816;DHT22;26535;48.788;9.214;2023-04-06T16:10:55;18.50;43.90
40816;DHT22;26535;48.788;9.214;2023-04-06T16:13:21;18.50;42.80
40816;DHT22;26535;48.788;9.214;2023-04-06T16:15:50;18.60;42.70
40816;DHT22;26535;48.788;9.214;2023-04-06T16:18:17;18.40;44.40
40816;DHT22;26535;48.788;9.214;2023-04-06T16:20:42;18.30;44.00
40816;DHT22;26535;48.788;9.214;2023-04-06T16:23:09;18.40;43.40
40816;DHT22;26535;48.788;9.214;2023-04-06T16:25:35;17.90;43.30
40816;DHT22;26535;48.788;9.214;2023-04-06T16:28:00;17.60;43.60
40816;DHT22;26535;48.788;9.214;2023-04-06T16:30:36;17.40;43.90
40816;DHT22;26535;48.788;9.214;2023-04-06T16:33:04;16.90;44.30
40816;DHT22;26535;48.788;9.214;2023-04-06T16:35:30;16.70;44.80
40816;DHT22;26535;48.788;9.214;2023-04-06T16:37:56;16.40;45.30
40816;DHT22;26535;48.788;9.214;2023-04-06T16:40:22;16.20;45.80
40816;DHT22;26535;48.788;9.214;2023-04-06T16:42:47;16.00;45.70
40816;DHT22;26535;48.788;9.214;2023-04-06T16:45:13;15.80;46.30
40816;DHT22;26535;48.788;9.214;2023-04-06T16:47:40;15.70;46.20
40816;DHT22;26535;48.788;9.214;2023-04-06T16:50:06;15.60;47.90
40816;DHT22;26535;48.788;9.214;2023-04-06T16:52:32;15.40;47.10
40816;DHT22;26535;48.788;9.214;2023-04-06T16:54:58;15.30;48.00
40816;DHT22;26535;48.788;9.214;2023-04-06T16:57:24;15.20;48.60
40816;DHT22;26535;48.788;9.214;2023-04-06T16:59:57;15.00;48.60
40816;DHT22;26535;48.788;9.214;2023-04-06T17:02:23;14.90;49.60
40816;DHT22;26535;48.788;9.214;2023-04-06T17:04:49;14.90;48.80
40816;DHT22;26535;48.788;9.214;2023-04-06T17:07:15;14.90;50.20
40816;DHT22;26535;48.788;9.214;2023-04-06T17:09:41;14.80;50.80
40816;DHT22;26535;48.788;9.214;2023-04-06T17:12:07;14.60;51.60
40816;DHT22;26535;48.788;9.214;2023-04-06T17:15:03;14.50;52.10
40816;DHT22;26535;48.788;9.214;2023-04-06T17:17:49;14.20;53.00
40816;DHT22;26535;48.788;9.214;2023-04-06T17:20:15;14.00;53.10
40816;DHT22;26535;48.788;9.214;2023-04-06T17:22:50;13.90;52.30
40816;DHT22;26535;48.788;9.214;2023-04-06T17:25:16;13.80;52.00
40816;DHT22;26535;48.788;9.214;2023-04-06T17:28:03;13.60;50.90
40816;DHT22;26535;48.788;9.214;2023-04-06T17:33:30;13.40;50.50
40816;DHT22;26535;48.788;9.214;2023-04-06T17:36:09;13.20;50.80
40816;DHT22;26535;48.788;9.214;2023-04-06T17:38:38;13.20;50.50
40816;DHT22;26535;48.788;9.214;2023-04-06T17:41:20;13.10;50.60
40816;DHT22;26535;48.788;9.214;2023-04-06T17:43:49;13.00;50.60
40816;DHT22;26535;48.788;9.214;2023-04-06T17:46:19;13.00;51.00
40816;DHT22;26535;48.788;9.214;2023-04-06T17:48:58;12.90;50.30
40816;DHT22;26535;48.788;9.214;2023-04-06T17:51:28;12.80;50.30
40816;DHT22;26535;48.788;9.214;2023-04-06T17:54:27;12.70;50.60
40816;DHT22;26535;48.788;9.214;2023-04-06T17:57:02;12.70;50.90
40816;DHT22;26535;48.788;9.214;2023-04-06T17:59:49;12.60;51.10
40816;DHT22;26535;48.788;9.214;2023-04-06T18:02:17;12.60;51.60
40816;DHT22;26535;48.788;9.214;2023-04-06T18:04:52;12.50;52.60
40816;DHT22;26535;48.788;9.214;2023-04-06T18:07:44;12.50;52.20
40816;DHT22;26535;48.788;9.214;2023-04-06T18:10:10;12.50;52.50
40816;DHT22;26535;48.788;9.214;2023-04-06T18:12:39;12.40;52.90
40816;DHT22;26535;48.788;9.214;2023-04-06T18:15:09;12.40;53.20
40816;DHT22;26535;48.788;9.214;2023-04-06T18:18:05;12.30;53.40
40816;DHT22;26535;48.788;9.214;2023-04-06T18:20:41;12.30;53.70
40816;DHT22;26535;48.788;9.214;2023-04-06T18:23:13;12.30;54.10
40816;DHT22;26535;48.788;9.214;2023-04-06T18:25:39;12.30;54.30
40816;DHT22;26535;48.788;9.214;2023-04-06T18:28:07;12.20;54.80
40816;DHT22;26535;48.788;9.214;2023-04-06T18:30:36;12.20;55.20
40816;DHT22;26535;48.788;9.214;2023-04-06T18:33:02;12.10;55.50
40816;DHT22;26535;48.788;9.214;2023-04-06T18:36:05;12.10;55.70
40816;DHT22;26535;48.788;9.214;2023-04-06T18:38:31;12.00;55.70
40816;DHT22;26535;48.788;9.214;2023-04-06T18:40:57;12.00;56.00
40816;DHT22;26535;48.788;9.214;2023-04-06T18:43:32;12.00;56.10
40816;DHT22;26535;48.788;9.214;2023-04-06T18:45:58;12.00;56.20
40816;DHT22;26535;48.788;9.214;2023-04-06T18:48:29;11.90;56.40
40816;DHT22;26535;48.788;9.214;2023-04-06T18:50:57;11.90;56.10
40816;DHT22;26535;48.788;9.214;2023-04-06T18:53:49;11.90;56.20
40816;DHT22;26535;48.788;9.214;2023-04-06T18:56:21;11.90;56.10
40816;DHT22;26535;48.788;9.214;2023-04-06T18:58:50;11.90;56.10
40816;DHT22;26535;48.788;9.214;2023-04-06T19:01:32;11.80;55.80
40816;DHT22;26535;48.788;9.214;2023-04-06T19:04:04;11.80;55.40
40816;DHT22;26535;48.788;9.214;2023-04-06T19:06:57;11.70;55.60
40816;DHT22;26535;48.788;9.214;2023-04-06T19:09:53;11.70;55.80
40816;DHT22;26535;48.788;9.214;2023-04-06T19:12:19;11.70;55.50
40816;DHT22;26535;48.788;9.214;2023-04-06T19:14:57;11.70;55.80
40816;DHT22;26535;48.788;9.214;2023-04-06T19:17:25;11.70;56.00
40816;DHT22;26535;48.788;9.214;2023-04-06T19:19:51;11.70;56.30
40816;DHT22;26535;48.788;9.214;2023-04-06T19:22:20;11.70;56.50
40816;DHT22;26535;48.788;9.214;2023-04-06T19:24:47;11.70;56.40
40816;DHT22;26535;48.788;9.214;2023-04-06T19:27:15;11.60;56.60
40816;DHT22;26535;48.788;9.214;2023-04-06T19:29:44;11.60;56.80
40816;DHT22;26535;48.788;9.214;2023-04-06T19:32:13;11.60;57.00
40816;DHT22;26535;48.788;9.214;2023-04-06T19:34:39;11.60;57.20
40816;DHT22;26535;48.788;9.214;2023-04-06T19:37:08;11.50;57.20
40816;DHT22;26535;48.788;9.214;2023-04-06T19:39:34;11.50;57.50
40816;DHT22;26535;48.788;9.214;2023-04-06T19:42:03;11.50;57.60
40816;DHT22;26535;48.788;9.214;2023-04-06T19:44:29;11.50;57.60
40816;DHT22;26535;48.788;9.214;2023-04-06T19:47:07;11.40;56.90
40816;DHT22;26535;48.788;9.214;2023-04-06T19:49:48;11.40;57.20
40816;DHT22;26535;48.788;9.214;2023-04-06T19:52:17;11.40;57.50
40816;DHT22;26535;48.788;9.214;2023-04-06T19:54:55;11.40;57.80
40816;DHT22;26535;48.788;9.214;2023-04-06T19:57:21;11.30;58.20
40816;DHT22;26535;48.788;9.214;2023-04-06T19:59:53;11.30;58.90
40816;DHT22;26535;48.788;9.214;2023-04-06T20:02:35;11.30;59.50
40816;DHT22;26535;48.788;9.214;2023-04-06T20:05:10;11.20;60.20
40816;DHT22;26535;48.788;9.214;2023-04-06T20:07:37;11.10;60.40
40816;DHT22;26535;48.788;9.214;2023-04-06T20:10:33;11.10;61.00
40816;DHT22;26535;48.788;9.214;2023-04-06T20:13:04;11.00;61.30
40816;DHT22;26535;48.788;9.214;2023-04-06T20:15:33;11.00;61.60
40816;DHT22;26535;48.788;9.214;2023-04-06T20:18:00;11.00;61.90
40816;DHT22;26535;48.788;9.214;2023-04-06T20:20:26;10.90;62.50
40816;DHT22;26535;48.788;9.214;2023-04-06T20:23:03;10.90;63.10
40816;DHT22;26535;48.788;9.214;2023-04-06T20:25:41;10.80;63.70
40816;DHT22;26535;48.788;9.214;2023-04-06T20:28:07;10.80;64.50
40816;DHT22;26535;48.788;9.214;2023-04-06T20:30:51;10.80;65.30
40816;DHT22;26535;48.788;9.214;2023-04-06T20:33:23;10.70;65.70
40816;DHT22;26535;48.788;9.214;2023-04-06T20:35:58;10.70;66.20
40816;DHT22;26535;48.788;9.214;2023-04-06T20:38:24;10.60;66.90
40816;DHT22;26535;48.788;9.214;2023-04-06T20:40:54;10.60;67.40
40816;DHT22;26535;48.788;9.214;2023-04-06T20:43:49;10.50;68.20
40816;DHT22;26535;48.788;9.214;2023-04-06T20:46:15;10.40;68.90
40816;DHT22;26535;48.788;9.214;2023-04-06T20:48:44;10.40;69.40
40816;DHT22;26535;48.788;9.214;2023-04-06T20:51:20;10.30;70.30
40816;DHT22;26535;48.788;9.214;2023-04-06T20:53:50;10.20;71.00
40816;DHT22;26535;48.788;9.214;2023-04-06T20:56:20;10.20;71.60
40816;DHT22;26535;48.788;9.214;2023-04-06T20:58:50;10.20;71.90
40816;DHT22;26535;48.788;9.214;2023-04-06T21:01:22;10.10;72.40
40816;DHT22;26535;48.788;9.214;2023-04-06T21:03:51;10.00;72.80
40816;DHT22;26535;48.788;9.214;2023-04-06T21:06:24;10.00;73.30
40816;DHT22;26535;48.788;9.214;2023-04-06T21:08:50;10.00;73.50
40816;DHT22;26535;48.788;9.214;2023-04-06T21:11:22;9.90;73.80
40816;DHT22;26535;48.788;9.214;2023-04-06T21:13:54;9.90;74.00
40816;DHT22;26535;48.788;9.214;2023-04-06T21:16:20;9.90;74.60
40816;DHT22;26535;48.788;9.214;2023-04-06T21:18:49;9.90;75.10
40816;DHT22;26535;48.788;9.214;2023-04-06T21:21:22;9.80;75.30
40816;DHT22;26535;48.788;9.214;2023-04-06T21:23:51;9.80;75.70
40816;DHT22;26535;48.788;9.214;2023-04-06T21:26:18;9.80;78.20
40816;DHT22;26535;48.788;9.214;2023-04-06T21:28:44;9.70;79.00
40816;DHT22;26535;48.788;9.214;2023-04-06T21:31:11;9.70;80.00
40816;DHT22;26535;48.788;9.214;2023-04-06T21:33:37;9.60;81.50
40816;DHT22;26535;48.788;9.214;2023-04-06T21:36:07;9.50;81.50
40816;DHT22;26535;48.788;9.214;2023-04-06T21:38:33;9.40;82.10
40816;DHT22;26535;48.788;9.214;2023-04-06T21:41:02;9.30;84.00
40816;DHT22;26535;48.788;9.214;2023-04-06T21:43:28;9.10;84.80
40816;DHT22;26535;48.788;9.214;2023-04-06T21:48:50;8.90;88.50
40816;DHT22;26535;48.788;9.214;2023-04-06T21:51:19;8.80;89.40
40816;DHT22;26535;48.788;9.214;2023-04-06T21:53:46;8.60;91.00
40816;DHT22;26535;48.788;9.214;2023-04-06T21:56:29;8.50;91.40
40816;DHT22;26535;48.788;9.214;2023-04-06T21:59:10;8.50;92.70
40816;DHT22;26535;48.788;9.214;2023-04-06T22:05:06;8.20;95.10
40816;DHT22;26535;48.788;9.214;2023-04-06T22:07:37;8.10;98.10